Time;durP1;ratioP1;P1;durP2;ratioP2;P2;SDS_P1;SDS_P2;PMS_P1;PMS_P2;Temp;Humidity;BMP_temperature;BMP_pressure;BME280_temperature;BME280_humidity;BME280_pressure;Samples;Min_cycle;Max_cycle;Signal;HPM_P1;HPM_P2
2024/01/27 00:00:26;;;;;;;10.80;4.43;;;8.50;99.90;;;;;;5055175;28;20181;-71
2024/01/27 00:02:52;;;;;;;6.33;4.87;;;8.50;99.90;;;;;;5054067;28;20174;-71
2024/01/27 00:05:18;;;;;;;9.27;4.83;;;8.50;99.90;;;;;;5054560;28;20177;-71
2024/01/27 00:07:44;;;;;;;14.57;4.50;;;8.40;99.90;;;;;;5055248;28;20177;-71
2024/01/27 00:10:09;;;;;;;11.33;4.63;;;8.40;99.90;;;;;;5036027;28;20178;-71
2024/01/27 00:12:36;;;;;;;8.50;5.03;;;8.40;99.90;;;;;;5036176;28;20178;-71
2024/01/27 00:15:02;;;;;;;7.40;4.63;;;8.40;99.90;;;;;;5052526;28;20217;-71
2024/01/27 00:17:28;;;;;;;12.07;4.20;;;8.40;99.90;;;;;;5054999;28;20518;-71
2024/01/27 00:19:54;;;;;;;12.90;5.30;;;8.40;99.90;;;;;;5053464;28;20171;-71
2024/01/27 00:22:20;;;;;;;10.40;4.20;;;8.40;99.90;;;;;;5054922;28;20176;-71
2024/01/27 00:24:46;;;;;;;9.93;4.20;;;8.40;99.90;;;;;;5054006;28;20432;-62
2024/01/27 00:27:12;;;;;;;5.10;3.73;;;8.40;99.90;;;;;;5036935;28;20401;-68
2024/01/27 00:29:38;;;;;;;8.07;4.67;;;8.40;99.90;;;;;;5054917;28;20963;-68
2024/01/27 00:32:04;;;;;;;8.97;5.50;;;8.40;99.90;;;;;;5053922;28;20201;-64
2024/01/27 00:34:29;;;;;;;11.90;4.63;;;8.40;99.90;;;;;;5055110;28;20277;-69
2024/01/27 00:36:55;;;;;;;9.27;4.80;;;8.40;99.90;;;;;;5036548;28;20424;-69
2024/01/27 00:39:22;;;;;;;10.73;4.37;;;8.40;99.90;;;;;;5037103;28;20328;-68
2024/01/27 00:41:48;;;;;;;12.40;4.80;;;8.40;99.90;;;;;;5053387;28;20170;-61
2024/01/27 00:44:14;;;;;;;10.73;4.50;;;8.40;99.90;;;;;;5054132;28;20415;-68
2024/01/27 00:46:39;;;;;;;6.10;4.60;;;8.30;99.90;;;;;;5037178;28;20174;-68
2024/01/27 00:49:05;;;;;;;14.53;4.67;;;8.30;99.90;;;;;;5015895;28;20189;-67
2024/01/27 00:51:32;;;;;;;5.73;3.97;;;8.30;99.90;;;;;;5016641;28;20178;-68
2024/01/27 00:53:57;;;;;;;11.80;5.00;;;8.30;99.90;;;;;;5033302;28;20166;-69
2024/01/27 00:56:23;;;;;;;9.40;4.83;;;8.40;99.90;;;;;;5016594;28;20819;-68
2024/01/27 00:58:49;;;;;;;10.90;5.10;;;8.30;99.90;;;;;;5045950;28;20194;-61
2024/01/27 01:01:15;;;;;;;10.53;4.23;;;8.30;99.90;;;;;;5053980;28;20170;-68
2024/01/27 01:03:40;;;;;;;5.70;4.27;;;8.20;99.90;;;;;;5053814;28;20183;-68
2024/01/27 01:06:06;;;;;;;9.27;4.63;;;8.30;99.90;;;;;;5050931;28;20178;-67
2024/01/27 01:08:32;;;;;;;8.13;4.20;;;8.30;99.90;;;;;;5054082;28;20189;-68
2024/01/27 01:10:58;;;;;;;8.07;4.20;;;8.30;99.90;;;;;;5053121;28;20232;-67
2024/01/27 01:13:24;;;;;;;6.83;4.53;;;8.30;99.90;;;;;;5053827;28;20186;-69
2024/01/27 01:15:50;;;;;;;9.10;4.00;;;8.30;99.90;;;;;;5053432;28;20452;-68
2024/01/27 01:18:15;;;;;;;12.50;4.07;;;8.30;99.90;;;;;;5053499;28;20452;-68
2024/01/27 01:20:41;;;;;;;10.97;4.17;;;8.30;99.90;;;;;;5054034;28;20591;-67
2024/01/27 01:23:07;;;;;;;8.70;3.80;;;8.30;99.90;;;;;;5050795;28;20618;-68
2024/01/27 01:25:33;;;;;;;10.80;4.23;;;8.30;99.90;;;;;;5053707;28;20205;-68
2024/01/27 01:27:59;;;;;;;4.10;3.60;;;8.30;99.90;;;;;;5035009;28;20397;-68
2024/01/27 01:30:24;;;;;;;9.40;4.07;;;8.30;99.90;;;;;;5053686;28;20257;-68
2024/01/27 01:32:51;;;;;;;10.67;4.40;;;8.30;99.90;;;;;;5053309;28;20169;-60
2024/01/27 01:35:17;;;;;;;8.20;3.70;;;8.40;99.90;;;;;;5050399;28;20183;-68
2024/01/27 01:37:42;;;;;;;5.57;3.63;;;8.40;99.90;;;;;;5052706;28;20991;-67
2024/01/27 01:40:08;;;;;;;6.70;3.73;;;8.30;99.90;;;;;;5052593;28;20424;-68
2024/01/27 01:42:34;;;;;;;6.90;4.20;;;8.30;99.90;;;;;;5053117;28;20210;-68
2024/01/27 01:45:00;;;;;;;8.00;4.00;;;8.30;99.90;;;;;;5052061;28;20447;-68
2024/01/27 01:47:26;;;;;;;5.77;3.60;;;8.30;99.90;;;;;;5053110;28;20181;-68
2024/01/27 01:49:52;;;;;;;8.57;4.57;;;8.30;99.90;;;;;;5052943;28;20400;-61
2024/01/27 01:52:20;;;;;;;8.50;4.47;;;8.20;99.90;;;;;;5052938;28;20398;-69
2024/01/27 01:54:50;;;;;;;10.20;4.43;;;8.20;99.90;;;;;;5035217;28;20475;-69
2024/01/27 01:57:16;;;;;;;8.40;4.20;;;8.20;99.90;;;;;;5052335;28;20392;-68
2024/01/27 01:59:42;;;;;;;7.77;4.40;;;8.20;99.90;;;;;;5052796;28;20404;-68
2024/01/27 02:02:12;;;;;;;9.20;4.60;;;8.10;99.90;;;;;;5052266;28;20423;-68
2024/01/27 02:04:42;;;;;;;7.70;4.50;;;8.10;99.90;;;;;;5051768;28;20428;-69
2024/01/27 02:07:08;;;;;;;10.80;4.90;;;8.10;99.90;;;;;;5051067;28;20423;-68
2024/01/27 02:09:33;;;;;;;8.07;4.10;;;8.10;99.90;;;;;;5052879;28;20495;-68
2024/01/27 02:11:59;;;;;;;6.70;3.70;;;8.10;99.90;;;;;;5045982;28;20558;-67
2024/01/27 02:14:27;;;;;;;7.17;4.00;;;8.20;99.90;;;;;;5033696;28;20575;-69
2024/01/27 02:16:53;;;;;;;11.23;4.80;;;8.20;99.90;;;;;;5052124;28;20184;-61
2024/01/27 02:19:19;;;;;;;6.40;4.40;;;8.30;99.90;;;;;;5052268;28;20462;-68
2024/01/27 02:21:45;;;;;;;12.57;4.40;;;8.20;99.90;;;;;;5051962;28;20954;-69
2024/01/27 02:24:10;;;;;;;8.77;4.20;;;8.20;99.90;;;;;;5051852;28;20204;-69
2024/01/27 02:26:36;;;;;;;13.33;4.57;;;8.20;99.90;;;;;;5052588;28;20253;-69
2024/01/27 02:29:02;;;;;;;9.27;4.20;;;8.20;99.90;;;;;;5052048;28;20173;-68
2024/01/27 02:31:29;;;;;;;12.00;4.13;;;8.20;99.90;;;;;;5052778;28;20170;-68
2024/01/27 02:33:55;;;;;;;8.97;4.20;;;8.10;99.90;;;;;;5051401;28;20443;-62
2024/01/27 02:36:20;;;;;;;7.67;4.30;;;8.10;99.90;;;;;;5034068;28;20447;-68
2024/01/27 02:38:46;;;;;;;7.50;4.10;;;8.10;99.90;;;;;;5033518;28;20202;-68
2024/01/27 02:41:12;;;;;;;5.73;5.10;;;8.10;99.90;;;;;;5051512;28;20409;-68
2024/01/27 02:43:38;;;;;;;9.17;5.40;;;8.10;99.90;;;;;;5051938;28;20227;-68
2024/01/27 02:46:10;;;;;;;7.57;4.07;;;8.00;99.90;;;;;;5051415;28;20178;-68
2024/01/27 02:48:36;;;;;;;13.23;5.43;;;8.00;99.90;;;;;;5051043;28;20408;-68
2024/01/27 02:51:04;;;;;;;9.87;4.87;;;8.00;99.90;;;;;;5051405;28;20454;-68
2024/01/27 02:53:30;;;;;;;7.60;4.53;;;8.00;99.90;;;;;;5052479;28;20664;-68
2024/01/27 02:55:56;;;;;;;9.40;5.20;;;8.00;99.90;;;;;;5051805;28;20405;-63
2024/01/27 02:58:22;;;;;;;11.27;5.67;;;8.00;99.90;;;;;;5033450;28;20197;-68
2024/01/27 03:00:48;;;;;;;9.20;5.00;;;8.00;99.90;;;;;;5051884;28;20687;-68
2024/01/27 03:03:14;;;;;;;12.80;5.97;;;8.00;99.90;;;;;;5051353;28;20234;-68
2024/01/27 03:05:40;;;;;;;10.23;5.70;;;8.00;99.90;;;;;;5052079;28;20400;-68
2024/01/27 03:08:07;;;;;;;11.53;5.30;;;8.00;99.90;;;;;;5049868;28;20428;-68
2024/01/27 03:10:32;;;;;;;8.67;5.33;;;8.00;99.90;;;;;;5051539;28;20569;-68
2024/01/27 03:12:58;;;;;;;11.33;6.00;;;8.00;99.90;;;;;;5049491;28;20498;-61
2024/01/27 03:15:24;;;;;;;7.60;5.60;;;7.90;99.90;;;;;;5046135;28;20228;-69
2024/01/27 03:17:49;;;;;;;8.00;4.87;;;7.90;99.90;;;;;;5033441;28;20234;-64
2024/01/27 03:20:15;;;;;;;9.73;6.67;;;7.90;99.90;;;;;;5050956;28;20190;-68
2024/01/27 03:22:41;;;;;;;9.87;7.00;;;7.80;99.90;;;;;;5050375;28;20170;-67
2024/01/27 03:25:10;;;;;;;12.97;6.00;;;7.80;99.90;;;;;;5032801;28;20178;-68
2024/01/27 03:27:36;;;;;;;14.43;6.30;;;7.80;99.90;;;;;;5050661;28;20553;-68
2024/01/27 03:30:03;;;;;;;13.30;6.20;;;7.80;99.90;;;;;;5031493;28;20493;-68
2024/01/27 03:32:32;;;;;;;13.87;6.60;;;7.70;99.90;;;;;;5049527;28;20170;-68
2024/01/27 03:35:01;;;;;;;9.63;6.40;;;7.70;99.90;;;;;;5051544;28;20488;-60
2024/01/27 03:37:27;;;;;;;11.50;7.10;;;7.70;99.90;;;;;;5049099;28;20475;-68
2024/01/27 03:39:53;;;;;;;10.60;6.07;;;7.70;99.90;;;;;;5043272;28;20424;-65
2024/01/27 03:42:19;;;;;;;11.20;5.70;;;7.70;99.90;;;;;;5049330;28;20269;-68
2024/01/27 03:44:45;;;;;;;12.10;6.27;;;7.70;99.90;;;;;;5050338;28;20424;-67
2024/01/27 03:47:11;;;;;;;10.27;6.40;;;7.60;99.90;;;;;;5048680;28;20235;-68
2024/01/27 03:49:36;;;;;;;11.47;6.33;;;7.60;99.90;;;;;;5051038;28;20173;-68
2024/01/27 03:52:03;;;;;;;12.50;6.40;;;7.60;99.90;;;;;;5033081;28;20416;-67
2024/01/27 03:54:29;;;;;;;12.27;7.70;;;7.60;99.90;;;;;;5051511;28;20172;-68
2024/01/27 03:56:55;;;;;;;9.70;6.57;;;7.60;99.90;;;;;;5051110;28;20400;-68
2024/01/27 03:59:21;;;;;;;7.63;5.90;;;7.60;99.90;;;;;;5051750;28;20239;-68
2024/01/27 04:01:47;;;;;;;9.30;6.60;;;7.60;99.90;;;;;;5054976;28;20876;-68
2024/01/27 04:04:13;;;;;;;7.93;5.97;;;7.60;99.90;;;;;;5054173;28;20228;-68
2024/01/27 04:06:42;;;;;;;11.17;5.87;;;7.50;99.90;;;;;;5055133;28;20404;-68
2024/01/27 04:09:11;;;;;;;9.03;5.83;;;7.50;99.90;;;;;;5054121;28;20400;-67
2024/01/27 04:11:37;;;;;;;9.60;6.23;;;7.50;99.90;;;;;;5054657;28;20415;-68
2024/01/27 04:14:04;;;;;;;9.37;5.70;;;7.50;99.90;;;;;;5036009;28;21081;-61
2024/01/27 04:16:30;;;;;;;12.60;6.43;;;7.40;99.90;;;;;;5053338;28;20776;-68
2024/01/27 04:18:56;;;;;;;13.43;6.57;;;7.40;99.90;;;;;;5054840;28;20452;-68
2024/01/27 04:21:22;;;;;;;17.17;7.83;;;7.40;99.90;;;;;;5053652;28;20511;-68
2024/01/27 04:23:48;;;;;;;10.13;5.80;;;7.40;99.90;;;;;;5054574;28;20926;-68
2024/01/27 04:26:14;;;;;;;9.57;5.83;;;7.30;99.90;;;;;;5054026;28;20400;-68
2024/01/27 04:28:40;;;;;;;11.00;7.23;;;7.30;99.90;;;;;;5054630;28;20435;-68
2024/01/27 04:31:06;;;;;;;8.30;5.50;;;7.30;99.90;;;;;;5054134;28;20411;-67
2024/01/27 04:33:32;;;;;;;10.17;5.60;;;7.30;99.90;;;;;;5020366;28;20490;-68
2024/01/27 04:35:58;;;;;;;13.70;5.87;;;7.30;99.90;;;;;;5041264;28;20424;-68
2024/01/27 04:38:24;;;;;;;14.47;5.97;;;7.20;99.90;;;;;;5016261;28;20606;-68
2024/01/27 04:40:51;;;;;;;9.00;5.93;;;7.30;99.90;;;;;;5034624;28;20470;-68
2024/01/27 04:43:18;;;;;;;9.33;6.17;;;7.20;99.90;;;;;;5015887;28;20976;-68
2024/01/27 04:45:44;;;;;;;7.97;5.33;;;7.20;99.90;;;;;;5022668;28;20477;-68
2024/01/27 04:48:10;;;;;;;12.67;5.40;;;7.20;99.90;;;;;;5052750;28;20490;-66
2024/01/27 04:50:36;;;;;;;9.93;6.13;;;7.20;99.90;;;;;;5034531;28;20499;-68
2024/01/27 04:53:01;;;;;;;14.00;6.40;;;7.20;99.90;;;;;;5034312;28;20442;-61
2024/01/27 04:55:27;;;;;;;10.20;6.10;;;7.20;99.90;;;;;;5052799;28;20173;-67
2024/01/27 04:57:53;;;;;;;7.80;6.17;;;7.20;99.90;;;;;;5053993;28;20199;-68
2024/01/27 05:00:19;;;;;;;8.50;5.80;;;7.30;99.90;;;;;;5053264;28;20867;-67
2024/01/27 05:02:45;;;;;;;10.17;5.83;;;7.30;99.90;;;;;;5053853;28;20205;-67
2024/01/27 05:05:12;;;;;;;9.77;5.87;;;7.30;99.90;;;;;;5053400;28;20406;-67
2024/01/27 05:07:40;;;;;;;10.97;6.03;;;7.40;99.90;;;;;;5053662;28;20439;-68
2024/01/27 05:10:10;;;;;;;11.43;6.43;;;7.40;99.90;;;;;;5053111;28;20415;-61
2024/01/27 05:12:35;;;;;;;8.47;6.10;;;7.30;99.90;;;;;;5053058;28;20382;-68
2024/01/27 05:15:01;;;;;;;9.70;6.37;;;7.30;99.90;;;;;;5052383;28;20452;-68
2024/01/27 05:17:27;;;;;;;12.80;6.50;;;7.30;99.90;;;;;;5052947;28;20211;-68
2024/01/27 05:19:52;;;;;;;9.83;6.10;;;7.40;99.90;;;;;;5053822;28;20408;-68
2024/01/27 05:22:18;;;;;;;12.23;6.57;;;7.40;99.90;;;;;;5034631;28;20176;-69
2024/01/27 05:24:44;;;;;;;9.53;6.37;;;7.40;99.90;;;;;;5035993;28;20624;-69
2024/01/27 05:27:10;;;;;;;11.53;6.70;;;7.40;99.90;;;;;;5052234;28;20550;-69
2024/01/27 05:29:37;;;;;;;9.40;6.30;;;7.30;99.90;;;;;;5053629;28;20176;-70
2024/01/27 05:32:03;;;;;;;26.63;8.33;;;7.30;99.90;;;;;;5053869;28;20546;-69
2024/01/27 05:34:29;;;;;;;11.17;6.50;;;7.40;99.90;;;;;;5034933;28;20408;-69
2024/01/27 05:36:55;;;;;;;11.10;6.70;;;7.30;99.90;;;;;;5053510;28;20399;-69
2024/01/27 05:39:20;;;;;;;13.80;6.40;;;7.30;99.90;;;;;;5052321;28;20533;-69
2024/01/27 05:41:46;;;;;;;8.07;6.50;;;7.30;99.90;;;;;;5053125;28;20617;-69
2024/01/27 05:44:12;;;;;;;12.70;6.10;;;7.30;99.90;;;;;;5034521;28;20233;-69
2024/01/27 05:46:38;;;;;;;7.20;5.27;;;7.30;99.90;;;;;;5052050;28;20176;-69
2024/01/27 05:49:03;;;;;;;8.13;5.43;;;7.20;99.90;;;;;;5033928;28;20184;-69
2024/01/27 05:51:33;;;;;;;11.37;6.13;;;7.20;99.90;;;;;;5051666;28;20265;-69
2024/01/27 05:53:59;;;;;;;7.40;5.90;;;7.20;99.90;;;;;;5053100;28;20183;-69
2024/01/27 05:56:25;;;;;;;7.37;5.97;;;7.10;99.90;;;;;;5052379;28;20473;-69
2024/01/27 05:58:51;;;;;;;9.10;6.60;;;7.10;99.90;;;;;;5053139;28;20528;-69
2024/01/27 06:01:20;;;;;;;9.93;6.60;;;7.10;99.90;;;;;;5051746;28;20430;-69
2024/01/27 06:03:46;;;;;;;13.23;7.40;;;7.10;99.90;;;;;;5052887;28;20410;-69
2024/01/27 06:06:12;;;;;;;6.90;6.30;;;7.10;99.90;;;;;;5052183;28;20406;-68
2024/01/27 06:08:38;;;;;;;11.73;7.37;;;7.10;99.90;;;;;;5035161;28;20884;-69
2024/01/27 06:11:04;;;;;;;10.63;7.13;;;7.10;99.90;;;;;;5052811;28;20252;-69
2024/01/27 06:13:30;;;;;;;11.17;7.37;;;7.10;99.90;;;;;;5051627;28;20532;-69
2024/01/27 06:15:55;;;;;;;13.33;8.33;;;7.20;99.90;;;;;;5050425;28;20231;-69
2024/01/27 06:18:21;;;;;;;10.63;8.43;;;7.20;99.90;;;;;;5049347;28;20215;-69
2024/01/27 06:20:47;;;;;;;14.33;8.20;;;7.30;99.90;;;;;;5052723;28;20622;-69
2024/01/27 06:23:13;;;;;;;11.50;7.50;;;7.30;99.90;;;;;;5033232;28;20818;-68
2024/01/27 06:25:40;;;;;;;8.00;6.60;;;7.30;99.90;;;;;;5034684;28;20481;-69
2024/01/27 06:28:05;;;;;;;10.90;6.73;;;7.30;99.90;;;;;;5052226;28;20172;-69
2024/01/27 06:30:31;;;;;;;11.00;7.37;;;7.40;99.90;;;;;;5033857;28;20427;-69
2024/01/27 06:32:57;;;;;;;10.23;7.37;;;7.20;99.90;;;;;;5034737;28;20505;-69
2024/01/27 06:35:22;;;;;;;12.20;6.10;;;7.20;99.90;;;;;;5051491;28;20169;-68
2024/01/27 06:37:50;;;;;;;8.17;7.17;;;7.10;99.90;;;;;;5034315;28;20205;-69
2024/01/27 06:40:16;;;;;;;11.47;6.97;;;7.10;99.90;;;;;;5013882;28;20170;-69
2024/01/27 06:42:41;;;;;;;10.87;6.87;;;7.00;99.90;;;;;;5032577;28;20407;-69
2024/01/27 06:45:07;;;;;;;10.50;6.97;;;7.00;99.90;;;;;;5028949;28;20180;-69
2024/01/27 06:47:33;;;;;;;15.03;7.17;;;6.90;99.90;;;;;;5051643;28;20318;-69
2024/01/27 06:49:59;;;;;;;8.10;6.50;;;6.90;99.90;;;;;;5051716;28;20958;-69
2024/01/27 06:52:24;;;;;;;9.63;7.20;;;6.80;99.90;;;;;;5051493;28;20541;-69
2024/01/27 06:54:50;;;;;;;16.83;7.00;;;6.80;99.90;;;;;;5052198;28;20206;-69
2024/01/27 06:57:20;;;;;;;11.23;7.23;;;6.80;99.90;;;;;;5051349;28;20254;-68
2024/01/27 06:59:52;;;;;;;7.80;7.00;;;6.80;99.90;;;;;;5052188;28;20174;-70
2024/01/27 07:02:31;;;;;;;12.80;8.30;;;6.80;99.90;;;;;;5051164;28;20391;-69
2024/01/27 07:04:56;;;;;;;15.30;7.60;;;6.80;99.90;;;;;;5051562;28;20882;-70
2024/01/27 07:07:27;;;;;;;8.83;7.30;;;6.80;99.90;;;;;;5051043;28;20407;-69
2024/01/27 07:09:55;;;;;;;8.33;7.30;;;6.90;99.90;;;;;;5051768;28;20162;-69
2024/01/27 07:12:21;;;;;;;17.17;8.07;;;6.90;99.90;;;;;;5050573;28;20902;-68
2024/01/27 07:14:46;;;;;;;7.83;7.10;;;6.90;99.90;;;;;;5026051;28;20518;-69
2024/01/27 07:17:13;;;;;;;12.40;7.33;;;6.90;99.90;;;;;;5018551;28;20423;-61
2024/01/27 07:19:39;;;;;;;9.40;6.80;;;7.00;99.90;;;;;;5051208;28;20187;-68
2024/01/27 07:22:05;;;;;;;11.63;7.30;;;6.90;99.90;;;;;;5051851;28;20502;-70
2024/01/27 07:24:30;;;;;;;9.77;6.90;;;6.90;99.90;;;;;;5051149;28;20172;-70
2024/01/27 07:26:58;;;;;;;12.23;7.50;;;6.80;99.90;;;;;;5034371;28;20750;-69
2024/01/27 07:29:24;;;;;;;8.30;7.50;;;6.80;99.90;;;;;;5051064;28;20399;-70
2024/01/27 07:31:50;;;;;;;10.23;7.03;;;6.70;99.90;;;;;;5033391;28;20493;-70
2024/01/27 07:34:15;;;;;;;14.40;6.93;;;6.70;99.90;;;;;;5051737;28;20414;-68
2024/01/27 07:36:41;;;;;;;10.83;7.03;;;6.70;99.90;;;;;;5055551;28;20497;-70
2024/01/27 07:39:07;;;;;;;11.30;7.80;;;6.70;99.90;;;;;;5055408;28;20723;-65
2024/01/27 07:41:33;;;;;;;10.17;6.67;;;6.70;99.90;;;;;;5039019;28;20204;-69
2024/01/27 07:44:18;;;;;;;16.37;7.60;;;6.70;99.90;;;;;;5039708;28;20802;-69
2024/01/27 07:46:44;;;;;;;7.70;6.90;;;6.70;99.90;;;;;;5037830;28;20243;-69
2024/01/27 07:49:12;;;;;;;8.10;7.40;;;6.70;99.90;;;;;;5054945;28;20417;-67
2024/01/27 07:51:38;;;;;;;9.50;8.43;;;6.80;99.90;;;;;;5052790;28;20173;-67
2024/01/27 07:54:04;;;;;;;12.13;8.13;;;6.70;99.90;;;;;;5050011;28;20493;-67
2024/01/27 07:56:30;;;;;;;10.87;8.50;;;6.70;99.90;;;;;;5050467;28;20173;-67
2024/01/27 07:58:56;;;;;;;8.80;8.00;;;6.80;99.90;;;;;;5052244;28;20648;-67
2024/01/27 08:01:21;;;;;;;10.53;7.40;;;6.80;99.90;;;;;;5051465;28;20417;-67
2024/01/27 08:03:47;;;;;;;10.80;8.17;;;6.90;99.90;;;;;;5035376;28;20169;-66
2024/01/27 08:06:29;;;;;;;11.50;9.23;;;6.90;99.90;;;;;;5044886;28;20182;-61
2024/01/27 08:08:55;;;;;;;16.63;10.63;;;6.80;99.90;;;;;;5055357;28;20164;-66
2024/01/27 08:11:21;;;;;;;12.20;9.73;;;6.80;99.90;;;;;;5054280;28;20883;-66
2024/01/27 08:13:47;;;;;;;13.70;9.90;;;6.80;99.90;;;;;;5054261;28;20454;-69
2024/01/27 08:16:13;;;;;;;10.00;7.60;;;6.80;99.90;;;;;;5054922;28;20564;-76
2024/01/27 08:18:42;;;;;;;12.23;11.13;;;6.80;99.90;;;;;;5053775;28;20213;-64
2024/01/27 08:21:08;;;;;;;12.43;11.30;;;7.50;99.90;;;;;;5047392;28;20428;-66
2024/01/27 08:23:34;;;;;;;16.27;9.70;;;9.00;99.90;;;;;;5045408;28;20425;-62
2024/01/27 08:26:00;;;;;;;10.70;9.40;;;9.50;99.90;;;;;;5051840;28;21009;-63
2024/01/27 08:28:26;;;;;;;10.37;8.53;;;9.90;99.90;;;;;;5058221;28;20915;-63
2024/01/27 08:30:52;;;;;;;12.07;8.27;;;10.20;99.90;;;;;;5057531;28;20493;-63
2024/01/27 08:33:18;;;;;;;9.63;8.73;;;10.70;99.90;;;;;;5061117;28;20878;-63
2024/01/27 08:35:46;;;;;;;9.20;7.63;;;11.10;99.90;;;;;;5038057;28;20209;-63
2024/01/27 08:38:12;;;;;;;11.03;7.87;;;11.50;99.90;;;;;;5052032;28;20197;-63
2024/01/27 08:40:38;;;;;;;9.47;7.87;;;11.90;99.90;;;;;;5058862;28;20459;-63
2024/01/27 08:43:03;;;;;;;9.37;8.10;;;12.20;99.90;;;;;;5042263;28;20449;-63
2024/01/27 08:45:29;;;;;;;11.20;7.00;;;12.50;99.90;;;;;;5039312;28;20251;-66
2024/01/27 08:47:55;;;;;;;9.53;7.33;;;12.80;99.90;;;;;;5054359;28;20429;-63
2024/01/27 08:50:21;;;;;;;9.53;7.57;;;13.00;99.90;;;;;;5032068;28;20499;-61
2024/01/27 08:52:47;;;;;;;11.37;7.70;;;13.20;99.90;;;;;;5049879;28;20172;-63
2024/01/27 08:55:13;;;;;;;12.93;7.43;;;13.40;99.90;;;;;;5054376;28;20417;-62
2024/01/27 08:57:38;;;;;;;9.13;7.93;;;13.60;99.90;;;;;;5034589;28;20464;-62
2024/01/27 09:00:05;;;;;;;9.07;6.80;;;13.80;99.90;;;;;;5054271;28;20574;-61
2024/01/27 09:02:30;;;;;;;13.77;7.60;;;14.00;99.90;;;;;;5035508;28;20178;-61
2024/01/27 09:04:56;;;;;;;10.10;7.53;;;14.10;99.80;;;;;;5053850;28;20767;-61
2024/01/27 09:07:24;;;;;;;11.60;7.93;;;14.40;97.80;;;;;;5052053;28;20170;-61
2024/01/27 09:09:49;;;;;;;12.17;7.67;;;14.80;97.70;;;;;;5044627;28;20227;-62
2024/01/27 09:12:15;;;;;;;11.00;8.10;;;15.40;96.20;;;;;;5045589;28;20416;-62
2024/01/27 09:14:41;;;;;;;9.80;8.80;;;16.00;93.20;;;;;;5049043;28;20662;-62
2024/01/27 09:17:07;;;;;;;7.53;6.60;;;16.30;90.70;;;;;;5038126;28;20448;-62
2024/01/27 09:19:32;;;;;;;10.50;7.57;;;16.80;86.10;;;;;;5049886;28;20194;-62
2024/01/27 09:21:58;;;;;;;10.70;8.30;;;17.60;81.60;;;;;;5046873;28;20324;-62
2024/01/27 09:24:24;;;;;;;7.53;6.40;;;18.30;79.00;;;;;;5039445;28;20617;-62
2024/01/27 09:26:51;;;;;;;8.23;7.43;;;18.80;74.60;;;;;;5043147;28;20425;-63
2024/01/27 09:29:17;;;;;;;9.37;6.80;;;19.20;70.40;;;;;;5043712;28;20173;-62
2024/01/27 09:31:43;;;;;;;10.97;7.30;;;19.50;67.60;;;;;;5045256;28;20435;-62
2024/01/27 09:34:09;;;;;;;8.63;7.73;;;20.10;65.80;;;;;;5041525;28;20421;-63
2024/01/27 09:36:35;;;;;;;9.53;6.77;;;20.80;64.40;;;;;;5035024;28;20236;-71
2024/01/27 09:39:01;;;;;;;29.40;20.63;;;21.40;62.80;;;;;;5046309;28;20552;-73
2024/01/27 09:41:32;;;;;;;96.17;68.17;;;21.80;55.50;;;;;;5047123;28;20400;-73
2024/01/27 09:44:02;;;;;;;36.20;23.50;;;21.70;54.10;;;;;;5055822;28;20526;-73
2024/01/27 09:46:29;;;;;;;8.70;7.90;;;21.40;53.20;;;;;;5054849;28;20427;-72
2024/01/27 09:48:54;;;;;;;8.40;7.50;;;21.10;53.00;;;;;;5033789;28;20440;-73
2024/01/27 09:51:21;;;;;;;11.87;8.40;;;20.60;52.70;;;;;;5040119;28;20451;-72
2024/01/27 09:53:46;;;;;;;9.47;7.10;;;20.10;53.80;;;;;;5053386;28;20197;-72
2024/01/27 09:56:17;;;;;;;10.07;7.13;;;19.60;54.80;;;;;;5053419;28;20435;-73
2024/01/27 09:58:44;;;;;;;12.27;6.70;;;19.20;54.90;;;;;;5053264;28;20221;-71
2024/01/27 10:01:11;;;;;;;10.47;6.40;;;18.70;55.90;;;;;;5061107;28;20498;-73
2024/01/27 10:03:40;;;;;;;11.03;6.53;;;18.30;57.30;;;;;;5060768;28;20486;-72
2024/01/27 10:06:08;;;;;;;10.50;6.87;;;17.90;57.90;;;;;;5059828;28;20818;-72
2024/01/27 10:08:34;;;;;;;11.20;5.83;;;17.50;58.10;;;;;;5056975;28;20421;-73
2024/01/27 10:11:08;;;;;;;11.07;6.13;;;17.00;60.30;;;;;;5061575;28;20399;-73
2024/01/27 10:13:34;;;;;;;11.47;5.90;;;16.50;61.50;;;;;;5043992;28;20205;-73
2024/01/27 10:16:04;;;;;;;9.60;6.57;;;16.00;61.40;;;;;;5056680;28;20441;-73
2024/01/27 10:18:31;;;;;;;9.00;5.70;;;15.60;63.80;;;;;;5059149;28;20443;-73
2024/01/27 10:20:57;;;;;;;10.13;5.33;;;15.30;67.00;;;;;;5059642;28;20843;-73
2024/01/27 10:23:24;;;;;;;6.30;5.40;;;15.20;67.80;;;;;;5059352;28;20424;-73
2024/01/27 10:25:50;;;;;;;128.17;84.83;;;15.00;69.40;;;;;;5061050;28;20422;-73
2024/01/27 10:28:16;;;;;;;161.00;96.20;;;15.00;70.70;;;;;;5059659;28;20425;-69
2024/01/27 10:30:43;;;;;;;226.37;107.30;;;14.90;72.50;;;;;;5060494;28;20407;-67
2024/01/27 10:33:15;;;;;;;22.27;14.40;;;14.90;71.20;;;;;;5061576;28;20411;-68
2024/01/27 10:35:42;;;;;;;6.17;5.20;;;14.90;70.90;;;;;;5054696;28;20875;-72
2024/01/27 10:38:08;;;;;;;9.37;5.80;;;14.90;70.50;;;;;;5061841;28;20442;-72
2024/01/27 10:40:36;;;;;;;9.90;5.80;;;14.90;70.20;;;;;;5059088;28;20417;-73
2024/01/27 10:43:07;;;;;;;5.03;4.53;;;14.80;72.20;;;;;;5057278;28;20427;-71
2024/01/27 10:45:42;;;;;;;7.57;5.03;;;14.80;72.10;;;;;;5038461;28;20881;-73
2024/01/27 10:48:10;;;;;;;8.40;5.60;;;14.90;72.50;;;;;;5057366;28;20421;-74
2024/01/27 10:50:38;;;;;;;6.20;4.67;;;15.00;71.10;;;;;;5045764;28;20503;-74
2024/01/27 10:53:08;;;;;;;7.70;4.70;;;15.00;71.40;;;;;;5053645;28;20434;-73
2024/01/27 10:55:35;;;;;;;9.50;5.33;;;15.10;72.80;;;;;;5058129;28;20407;-74
2024/01/27 10:58:02;;;;;;;10.60;5.50;;;15.20;70.90;;;;;;5043825;28;20454;-73
2024/01/27 11:00:30;;;;;;;5.50;4.37;;;15.20;70.70;;;;;;5058318;28;20998;-72
2024/01/27 11:02:59;;;;;;;6.03;4.73;;;15.30;71.00;;;;;;5053543;28;20418;-70
2024/01/27 11:05:27;;;;;;;8.80;5.67;;;15.40;71.10;;;;;;5039421;28;20492;-72
2024/01/27 11:07:53;;;;;;;5.47;4.53;;;15.50;70.30;;;;;;5029653;28;20581;-73
2024/01/27 11:10:19;;;;;;;9.90;4.50;;;15.60;71.70;;;;;;5053276;28;20802;-72
2024/01/27 11:12:47;;;;;;;9.83;5.50;;;15.60;70.70;;;;;;5050768;28;20508;-73
2024/01/27 11:15:13;;;;;;;6.00;4.47;;;15.80;70.20;;;;;;5039136;28;20223;-73
2024/01/27 11:17:41;;;;;;;4.60;4.10;;;15.80;70.80;;;;;;5053209;28;20443;-74
2024/01/27 11:20:11;;;;;;;7.70;5.00;;;15.90;69.80;;;;;;5054450;28;20428;-71
2024/01/27 11:22:37;;;;;;;6.60;4.70;;;16.00;69.00;;;;;;5055005;28;20455;-74
2024/01/27 11:25:12;;;;;;;13.50;6.23;;;16.10;68.20;;;;;;5056444;28;20419;-72
2024/01/27 11:27:43;;;;;;;8.67;4.43;;;16.30;67.10;;;;;;5055755;28;20828;-72
2024/01/27 11:30:39;;;;;;;8.57;4.67;;;16.40;67.30;;;;;;5056446;28;20388;-73
2024/01/27 11:33:05;;;;;;;7.20;4.50;;;16.40;65.40;;;;;;5054808;28;20900;-71
2024/01/27 11:35:31;;;;;;;7.67;3.90;;;16.30;66.30;;;;;;5053644;28;20408;-73
2024/01/27 11:37:57;;;;;;;5.37;3.40;;;16.40;65.90;;;;;;5053043;28;20459;-73
2024/01/27 11:40:23;;;;;;;9.20;4.10;;;16.40;65.90;;;;;;5056171;28;20446;-72
2024/01/27 11:42:59;;;;;;;9.47;4.40;;;16.50;66.10;;;;;;5055115;28;20173;-73
2024/01/27 11:45:25;;;;;;;6.40;4.47;;;16.50;64.20;;;;;;5055752;28;20199;-60
2024/01/27 11:47:51;;;;;;;5.70;4.10;;;16.50;63.60;;;;;;5054274;28;20419;-72
2024/01/27 11:50:18;;;;;;;7.20;4.23;;;16.50;63.70;;;;;;5056235;28;20879;-73
2024/01/27 11:52:44;;;;;;;7.47;4.40;;;16.60;64.60;;;;;;5036893;28;20424;-73
2024/01/27 11:55:10;;;;;;;6.70;3.90;;;16.60;63.70;;;;;;5037493;28;20424;-72
2024/01/27 11:57:36;;;;;;;6.90;3.93;;;16.70;63.10;;;;;;5055162;28;20404;-73
2024/01/27 12:00:02;;;;;;;6.80;4.07;;;16.60;63.70;;;;;;5054152;28;20691;-73
2024/01/27 12:02:27;;;;;;;9.57;5.00;;;16.70;62.60;;;;;;5055216;28;20165;-71
2024/01/27 12:04:54;;;;;;;8.63;4.23;;;16.60;63.20;;;;;;5036727;28;20473;-66
2024/01/27 12:07:21;;;;;;;7.60;4.57;;;16.70;63.00;;;;;;5054314;28;20178;-72
2024/01/27 12:09:49;;;;;;;9.37;4.30;;;16.70;63.00;;;;;;5054935;28;20877;-72
2024/01/27 12:12:16;;;;;;;7.43;4.80;;;16.60;63.40;;;;;;5055198;28;20915;-72
2024/01/27 12:14:45;;;;;;;10.53;4.87;;;16.70;62.00;;;;;;5054373;28;20463;-73
2024/01/27 12:17:11;;;;;;;6.17;4.40;;;16.70;61.50;;;;;;5037679;28;20404;-72
2024/01/27 12:19:38;;;;;;;7.13;4.20;;;16.80;62.00;;;;;;5054326;28;20451;-72
2024/01/27 12:22:05;;;;;;;10.97;5.57;;;16.70;61.80;;;;;;5055553;28;20404;-72
2024/01/27 12:24:34;;;;;;;8.27;4.00;;;16.60;61.70;;;;;;5054755;28;20411;-72
2024/01/27 12:27:00;;;;;;;6.23;4.27;;;16.50;60.30;;;;;;5055499;28;20406;-73
2024/01/27 12:29:26;;;;;;;10.03;4.40;;;16.30;60.50;;;;;;5055188;28;20411;-72
2024/01/27 12:31:53;;;;;;;4.87;3.17;;;16.20;60.30;;;;;;5054815;28;20403;-72
2024/01/27 12:34:19;;;;;;;8.00;4.10;;;16.10;60.20;;;;;;5055180;28;20499;-73
2024/01/27 12:36:45;;;;;;;6.93;3.50;;;16.00;60.60;;;;;;5034694;28;20425;-73
2024/01/27 12:39:11;;;;;;;9.03;5.07;;;15.90;60.80;;;;;;5054811;28;20517;-73
2024/01/27 12:41:37;;;;;;;4.40;3.03;;;15.90;62.30;;;;;;5054101;28;20201;-71
2024/01/27 12:44:03;;;;;;;6.17;3.83;;;15.80;61.40;;;;;;5054730;28;20474;-74